Time,TemperatureF,DewpointF,PressureIn,WindDirection,WindDirectionDegrees,WindSpeedMPH,WindSpeedGustMPH,Humidity,HourlyPrecipIn,Conditions,Clouds,dailyrainin,SolarRadiationWatts/m^2,SoftwareType,DateUTC
2013-03-19 00:03:00,70.0,65.0,-100.00,SSW,192,8.0,-999.0,84,0.00,,,-99.99,0.000000,,2013-03-19 04:03:00,
2013-03-19 00:13:00,69.0,65.0,-100.00,SSW,201,4.0,-999.0,85,0.00,,,-99.99,0.000000,,2013-03-19 04:13:00,
2013-03-19 00:23:00,69.0,65.0,-100.00,SSW,201,4.0,-999.0,85,0.00,,,-99.99,0.000000,,2013-03-19 04:23:00,
2013-03-19 00:33:00,69.0,65.0,-100.00,SW,233,3.0,-999.0,86,0.00,,,-99.99,0.000000,,2013-03-19 04:33:00,
2013-03-19 00:43:00,69.0,65.0,-100.00,WSW,240,3.0,-999.0,87,0.00,,,-99.99,0.000000,,2013-03-19 04:43:00,
2013-03-19 00:53:00,69.0,65.0,-100.00,WSW,240,3.0,-999.0,87,0.00,,,-99.99,0.000000,,2013-03-19 04:53:00,
2013-03-19 01:02:00,68.0,65.0,-100.00,SW,233,3.0,-999.0,88,0.00,,,-99.99,0.000000,,2013-03-19 05:02:00,
2013-03-19 01:12:00,68.0,65.0,-100.00,West,263,3.0,-999.0,89,0.00,,,-99.99,0.000000,,2013-03-19 05:12:00,
2013-03-19 01:22:00,68.0,65.0,-100.00,West,263,3.0,-999.0,89,0.00,,,-99.99,0.000000,,2013-03-19 05:22:00,
2013-03-19 01:32:00,68.0,65.0,-100.00,WSW,242,1.0,-999.0,90,0.00,,,-99.99,0.000000,,2013-03-19 05:32:00,
2013-03-19 01:43:00,67.0,64.0,-100.00,West,267,1.0,-999.0,91,0.00,,,-99.99,0.000000,,2013-03-19 05:43:00,
2013-03-19 01:52:00,67.0,64.0,-100.00,West,267,1.0,-999.0,91,0.00,,,-99.99,0.000000,,2013-03-19 05:52:00,
2013-03-19 02:02:00,66.0,64.0,-100.00,NNW,337,3.0,-999.0,93,0.00,,,-99.99,0.000000,,2013-03-19 06:02:00,
2013-03-19 02:12:00,66.0,64.0,-100.00,NNW,345,2.0,-999.0,94,0.00,,,-99.99,0.000000,,2013-03-19 06:12:00,
2013-03-19 02:22:00,66.0,64.0,-100.00,NNW,345,2.0,-999.0,94,0.00,,,-99.99,0.000000,,2013-03-19 06:22:00,
2013-03-19 02:32:00,65.0,64.0,-100.00,NNW,331,2.0,-999.0,95,0.00,,,-99.99,0.000000,,2013-03-19 06:32:00,
2013-03-19 02:42:00,65.0,64.0,-100.00,NNW,333,2.0,-999.0,95,0.00,,,-99.99,0.000000,,2013-03-19 06:42:00,
2013-03-19 02:52:00,65.0,64.0,-100.00,NNW,333,2.0,-999.0,95,0.00,,,-99.99,0.000000,,2013-03-19 06:52:00,
2013-03-19 03:02:00,64.0,63.0,-100.00,North,354,1.0,-999.0,96,0.00,,,-99.99,0.000000,,2013-03-19 07:02:00,
2013-03-19 03:12:00,64.0,63.0,-100.00,NNW,332,2.0,-999.0,96,0.00,,,-99.99,0.000000,,2013-03-19 07:12:00,
2013-03-19 03:22:00,64.0,63.0,-100.00,NNW,332,2.0,-999.0,96,0.00,,,-99.99,0.000000,,2013-03-19 07:22:00,
2013-03-19 03:32:00,64.0,63.0,-100.00,North,359,1.0,-999.0,97,0.00,,,-99.99,0.000000,,2013-03-19 07:32:00,
2013-03-19 03:42:00,64.0,63.0,-100.00,North,357,2.0,-999.0,97,0.00,,,-99.99,0.000000,,2013-03-19 07:42:00,
2013-03-19 03:53:00,64.0,63.0,-100.00,North,357,2.0,-999.0,97,0.00,,,-99.99,0.000000,,2013-03-19 07:53:00,
2013-03-19 04:03:00,64.0,63.0,-100.00,North,350,2.0,-999.0,97,0.00,,,-99.99,0.000000,,2013-03-19 08:03:00,
2013-03-19 04:12:00,64.0,63.0,-100.00,North,351,3.0,-999.0,98,0.00,,,-99.99,0.000000,,2013-03-19 08:12:00,
2013-03-19 04:22:00,64.0,63.0,-100.00,North,351,3.0,-999.0,98,0.00,,,-99.99,0.000000,,2013-03-19 08:22:00,
2013-03-19 04:32:00,64.0,64.0,-100.00,North,356,5.0,-999.0,98,0.00,,,-99.99,0.000000,,2013-03-19 08:32:00,
2013-03-19 04:42:00,64.0,64.0,-100.00,North,352,4.0,-999.0,98,0.00,,,-99.99,0.000000,,2013-03-19 08:42:00,
2013-03-19 04:52:00,64.0,64.0,-100.00,North,352,4.0,-999.0,98,0.00,,,-99.99,0.000000,,2013-03-19 08:52:00,
2013-03-19 05:02:00,64.0,63.0,-100.00,NE,53,3.0,-999.0,98,0.00,,,-99.99,0.000000,,2013-03-19 09:02:00,
2013-03-19 05:12:00,64.0,63.0,-100.00,NE,40,2.0,-999.0,98,0.00,,,-99.99,0.000000,,2013-03-19 09:12:00,
2013-03-19 05:22:00,64.0,63.0,-100.00,NE,40,2.0,-999.0,98,0.00,,,-99.99,0.000000,,2013-03-19 09:22:00,
2013-03-19 05:32:00,64.0,63.0,-100.00,NE,41,4.0,-999.0,98,0.00,,,-99.99,0.000000,,2013-03-19 09:32:00,
2013-03-19 05:43:00,64.0,63.0,-100.00,NNE,13,5.0,-999.0,98,0.00,,,-99.99,0.000000,,2013-03-19 09:43:00,
2013-03-19 05:53:00,64.0,63.0,-100.00,NNE,13,5.0,-999.0,98,0.00,,,-99.99,0.000000,,2013-03-19 09:53:00,
2013-03-19 06:03:00,64.0,64.0,-100.00,NE,34,5.0,-999.0,98,0.00,,,-99.99,0.000000,,2013-03-19 10:03:00,
2013-03-19 06:13:00,64.0,64.0,-100.00,NNE,31,4.0,-999.0,98,0.00,,,-99.99,0.000000,,2013-03-19 10:13:00,
2013-03-19 06:23:00,64.0,64.0,-100.00,NNE,31,4.0,-999.0,98,0.00,,,-99.99,0.000000,,2013-03-19 10:23:00,
2013-03-19 06:32:00,64.0,64.0,-100.00,NNE,21,6.0,-999.0,98,0.00,,,-99.99,0.000000,,2013-03-19 10:32:00,
2013-03-19 06:42:00,64.0,64.0,-100.00,NE,36,6.0,-999.0,98,0.00,,,-99.99,0.000000,,2013-03-19 10:42:00,
2013-03-19 06:53:00,64.0,64.0,-100.00,NE,36,6.0,-999.0,98,0.00,,,-99.99,0.000000,,2013-03-19 10:53:00,
2013-03-19 07:02:00,65.0,64.0,-100.00,NNE,20,6.0,-999.0,98,0.00,,,-99.99,0.000000,,2013-03-19 11:02:00,
2013-03-19 07:12:00,64.0,64.0,-100.00,NE,36,6.0,-999.0,98,0.00,,,-99.99,0.000000,,2013-03-19 11:12:00,
2013-03-19 07:22:00,64.0,64.0,-100.00,NE,36,6.0,-999.0,98,0.00,,,-99.99,0.000000,,2013-03-19 11:22:00,
2013-03-19 07:33:00,64.0,64.0,-100.00,ENE,68,5.0,-999.0,98,0.00,,,-99.99,0.000000,,2013-03-19 11:33:00,
2013-03-19 07:43:00,64.0,63.0,-100.00,ESE,114,5.0,-999.0,98,0.00,,,-99.99,0.600000,,2013-03-19 11:43:00,
2013-03-19 07:53:00,64.0,63.0,-100.00,ESE,114,5.0,-999.0,98,0.00,,,-99.99,0.600000,,2013-03-19 11:53:00,
2013-03-19 08:02:00,63.0,62.0,-100.00,ESE,119,4.0,-999.0,98,0.00,,,-99.99,2.900000,,2013-03-19 12:02:00,
2013-03-19 08:12:00,62.0,62.0,-100.00,ESE,119,3.0,-999.0,98,0.00,,,-99.99,8.400000,,2013-03-19 12:12:00,
2013-03-19 08:22:00,62.0,62.0,-100.00,ESE,119,3.0,-999.0,98,0.00,,,-99.99,8.400000,,2013-03-19 12:22:00,
2013-03-19 08:33:00,62.0,61.0,-100.00,SSE,161,2.0,-999.0,98,0.00,,,-99.99,37.099998,,2013-03-19 12:33:00,
2013-03-19 08:42:00,62.0,62.0,-100.00,SSW,203,2.0,-999.0,98,0.00,,,-99.99,74.900002,,2013-03-19 12:42:00,
2013-03-19 08:52:00,62.0,62.0,-100.00,SSW,203,2.0,-999.0,98,0.00,,,-99.99,74.900002,,2013-03-19 12:52:00,
2013-03-19 09:02:00,63.0,63.0,-100.00,NNW,338,6.0,-999.0,97,0.00,,,-99.99,64.300003,,2013-03-19 13:02:00,
2013-03-19 09:12:00,63.0,63.0,-100.00,North,354,4.0,-999.0,97,0.00,,,-99.99,26.200001,,2013-03-19 13:12:00,
2013-03-19 09:22:00,63.0,63.0,-100.00,North,354,4.0,-999.0,97,0.00,,,-99.99,26.200001,,2013-03-19 13:22:00,
2013-03-19 09:32:00,64.0,63.0,-100.00,North,7,5.0,-999.0,97,0.00,,,-99.99,82.599998,,2013-03-19 13:32:00,
2013-03-19 09:42:00,64.0,63.0,-100.00,NE,43,5.0,-999.0,96,0.00,,,-99.99,229.000000,,2013-03-19 13:42:00,
2013-03-19 09:53:00,64.0,63.0,-100.00,NE,43,5.0,-999.0,96,0.00,,,-99.99,229.000000,,2013-03-19 13:53:00,
2013-03-19 10:02:00,66.0,64.0,-100.00,East,89,2.0,-999.0,92,0.00,,,-99.99,377.299988,,2013-03-19 14:02:00,
2013-03-19 10:12:00,68.0,64.0,-100.00,SE,137,5.0,-999.0,86,0.00,,,-99.99,405.200012,,2013-03-19 14:12:00,
2013-03-19 10:22:00,68.0,64.0,-100.00,SE,137,5.0,-999.0,86,0.00,,,-99.99,405.200012,,2013-03-19 14:22:00,
2013-03-19 10:32:00,69.0,63.0,-100.00,SSE,149,7.0,-999.0,81,0.00,,,-99.99,473.600006,,2013-03-19 14:32:00,
2013-03-19 10:42:00,71.0,63.0,-100.00,SSE,151,6.0,-999.0,74,0.00,,,-99.99,526.599976,,2013-03-19 14:42:00,
2013-03-19 10:52:00,71.0,63.0,-100.00,SSE,151,6.0,-999.0,74,0.00,,,-99.99,526.599976,,2013-03-19 14:52:00,
2013-03-19 11:02:00,73.0,62.0,-100.00,SSE,161,6.0,-999.0,68,0.00,,,-99.99,574.900024,,2013-03-19 15:02:00,
2013-03-19 11:12:00,74.0,61.0,-100.00,SSE,163,5.0,-999.0,64,0.00,,,-99.99,617.799988,,2013-03-19 15:12:00,
2013-03-19 11:22:00,74.0,61.0,-100.00,SSE,163,5.0,-999.0,64,0.00,,,-99.99,617.799988,,2013-03-19 15:22:00,
2013-03-19 11:34:00,75.0,61.0,-100.00,SSE,156,4.0,-999.0,60,0.00,,,-99.99,657.799988,,2013-03-19 15:34:00,
2013-03-19 11:44:00,76.0,61.0,-100.00,SSE,154,4.0,-999.0,58,0.00,,,-99.99,697.900024,,2013-03-19 15:44:00,
2013-03-19 11:53:00,76.0,61.0,-100.00,SSE,154,4.0,-999.0,58,0.00,,,-99.99,697.900024,,2013-03-19 15:53:00,
2013-03-19 12:04:00,77.0,61.0,-100.00,South,173,3.0,-999.0,56,0.00,,,-99.99,734.000000,,2013-03-19 16:04:00,
2013-03-19 12:13:00,79.0,60.0,-100.00,West,277,3.0,-999.0,51,0.00,,,-99.99,759.000000,,2013-03-19 16:13:00,
2013-03-19 12:24:00,79.0,60.0,-100.00,West,277,3.0,-999.0,51,0.00,,,-99.99,759.000000,,2013-03-19 16:24:00,
2013-03-19 12:34:00,79.0,62.0,-100.00,SW,236,5.0,-999.0,56,0.00,,,-99.99,779.000000,,2013-03-19 16:34:00,
2013-03-19 12:44:00,79.0,62.0,-100.00,SW,236,5.0,-999.0,56,0.00,,,-99.99,779.000000,,2013-03-19 16:44:00,
2013-03-19 12:54:00,78.0,62.0,-100.00,SW,220,5.0,-999.0,57,0.00,,,-99.99,871.000000,,2013-03-19 16:54:00,
2013-03-19 13:03:00,79.0,61.0,-100.00,SW,215,7.0,-999.0,54,0.00,,,-99.99,861.000000,,2013-03-19 17:03:00,
2013-03-19 13:14:00,80.0,60.0,-100.00,SSW,195,7.0,-999.0,50,0.00,,,-99.99,849.000000,,2013-03-19 17:14:00,
2013-03-19 13:24:00,80.0,60.0,-100.00,SSW,195,7.0,-999.0,50,0.00,,,-99.99,849.000000,,2013-03-19 17:24:00,
2013-03-19 13:34:00,81.0,60.0,-100.00,SSW,213,8.0,-999.0,49,0.00,,,-99.99,858.000000,,2013-03-19 17:34:00,
2013-03-19 13:44:00,82.0,60.0,-100.00,SSW,198,6.0,-999.0,47,0.00,,,-99.99,850.000000,,2013-03-19 17:44:00,
2013-03-19 13:53:00,82.0,60.0,-100.00,SSW,198,6.0,-999.0,47,0.00,,,-99.99,850.000000,,2013-03-19 17:53:00,
2013-03-19 14:03:00,83.0,60.0,-100.00,WSW,239,6.0,-999.0,44,0.00,,,-99.99,880.000000,,2013-03-19 18:03:00,
2013-03-19 14:13:00,83.0,58.0,-100.00,West,260,5.0,-999.0,43,0.00,,,-99.99,860.000000,,2013-03-19 18:13:00,
2013-03-19 14:23:00,83.0,58.0,-100.00,West,260,5.0,-999.0,43,0.00,,,-99.99,860.000000,,2013-03-19 18:23:00,
2013-03-19 14:33:00,82.0,59.0,-100.00,WSW,251,6.0,-999.0,45,0.00,,,-99.99,822.000000,,2013-03-19 18:33:00,
2013-03-19 14:43:00,84.0,59.0,-100.00,West,274,6.0,-999.0,42,0.00,,,-99.99,665.299988,,2013-03-19 18:43:00,
2013-03-19 14:53:00,84.0,59.0,-100.00,West,274,6.0,-999.0,42,0.00,,,-99.99,665.299988,,2013-03-19 18:53:00,
2013-03-19 15:02:00,82.0,58.0,-100.00,WNW,296,5.0,-999.0,43,0.00,,,-99.99,434.200012,,2013-03-19 19:02:00,
2013-03-19 15:12:00,83.0,57.0,-100.00,West,271,5.0,-999.0,41,0.00,,,-99.99,641.599976,,2013-03-19 19:12:00,
2013-03-19 15:22:00,83.0,57.0,-100.00,West,271,5.0,-999.0,41,0.00,,,-99.99,641.599976,,2013-03-19 19:22:00,
2013-03-19 15:33:00,82.0,58.0,-100.00,WSW,240,4.0,-999.0,42,0.00,,,-99.99,565.000000,,2013-03-19 19:33:00,
2013-03-19 15:43:00,84.0,58.0,-100.00,WSW,256,4.0,-999.0,42,0.00,,,-99.99,676.299988,,2013-03-19 19:43:00,
2013-03-19 15:53:00,84.0,58.0,-100.00,WSW,256,4.0,-999.0,42,0.00,,,-99.99,676.299988,,2013-03-19 19:53:00,
2013-03-19 16:03:00,83.0,58.0,-100.00,WSW,240,5.0,-999.0,42,0.00,,,-99.99,515.599976,,2013-03-19 20:03:00,
2013-03-19 16:12:00,83.0,58.0,-100.00,WSW,249,6.0,-999.0,42,0.00,,,-99.99,398.899994,,2013-03-19 20:12:00,
2013-03-19 16:22:00,83.0,58.0,-100.00,WSW,249,6.0,-999.0,42,0.00,,,-99.99,398.899994,,2013-03-19 20:22:00,
2013-03-19 16:32:00,83.0,58.0,-100.00,WSW,248,6.0,-999.0,41,0.00,,,-99.99,584.500000,,2013-03-19 20:32:00,
2013-03-19 16:43:00,83.0,58.0,-100.00,WSW,248,6.0,-999.0,41,0.00,,,-99.99,584.500000,,2013-03-19 20:43:00,
2013-03-19 16:53:00,83.0,57.0,-100.00,WSW,248,5.0,-999.0,42,0.00,,,-99.99,347.500000,,2013-03-19 20:53:00,
2013-03-19 17:02:00,84.0,58.0,-100.00,WSW,238,5.0,-999.0,41,0.00,,,-99.99,532.700012,,2013-03-19 21:02:00,
2013-03-19 17:12:00,84.0,58.0,-100.00,SSW,213,4.0,-999.0,41,0.00,,,-99.99,352.899994,,2013-03-19 21:12:00,
2013-03-19 17:23:00,84.0,58.0,-100.00,SSW,213,4.0,-999.0,41,0.00,,,-99.99,352.899994,,2013-03-19 21:23:00,
2013-03-19 17:34:00,84.0,58.0,-100.00,WSW,253,3.0,-999.0,41,0.00,,,-99.99,305.899994,,2013-03-19 21:34:00,
2013-03-19 17:43:00,85.0,57.0,-100.00,NW,311,3.0,-999.0,39,0.00,,,-99.99,312.600006,,2013-03-19 21:43:00,
2013-03-19 17:53:00,85.0,57.0,-100.00,NW,311,3.0,-999.0,39,0.00,,,-99.99,312.600006,,2013-03-19 21:53:00,
2013-03-19 18:03:00,83.0,57.0,-100.00,NNE,26,3.0,-999.0,41,0.00,,,-99.99,164.800003,,2013-03-19 22:03:00,
2013-03-19 18:13:00,83.0,57.0,-100.00,NNE,26,3.0,-999.0,41,0.00,,,-99.99,164.800003,,2013-03-19 22:13:00,
2013-03-19 18:23:00,84.0,57.0,-100.00,North,6,2.0,-999.0,40,0.00,,,-99.99,233.500000,,2013-03-19 22:23:00,
2013-03-19 18:33:00,84.0,58.0,-100.00,NNE,28,4.0,-999.0,40,0.00,,,-99.99,267.299988,,2013-03-19 22:33:00,
2013-03-19 18:43:00,84.0,58.0,-100.00,NE,41,4.0,-999.0,41,0.00,,,-99.99,213.800003,,2013-03-19 22:43:00,
2013-03-19 18:53:00,84.0,58.0,-100.00,NE,41,4.0,-999.0,41,0.00,,,-99.99,213.800003,,2013-03-19 22:53:00,
2013-03-19 19:03:00,84.0,58.0,-100.00,NNW,341,2.0,-999.0,40,0.00,,,-99.99,190.300003,,2013-03-19 23:03:00,
2013-03-19 19:12:00,83.0,58.0,-100.00,SSE,160,2.0,-999.0,41,0.00,,,-99.99,83.699997,,2013-03-19 23:12:00,
2013-03-19 19:22:00,83.0,58.0,-100.00,SSE,160,2.0,-999.0,41,0.00,,,-99.99,83.699997,,2013-03-19 23:22:00,
2013-03-19 19:32:00,82.0,56.0,-100.00,NNE,30,5.0,-999.0,42,0.00,,,-99.99,43.400002,,2013-03-19 23:32:00,
2013-03-19 19:43:00,80.0,56.0,-100.00,North,4,5.0,-999.0,43,0.00,,,-99.99,14.100000,,2013-03-19 23:43:00,
2013-03-19 19:53:00,80.0,56.0,-100.00,North,4,5.0,-999.0,43,0.00,,,-99.99,14.100000,,2013-03-19 23:53:00,
2013-03-19 20:03:00,79.0,56.0,-100.00,NNE,20,5.0,-999.0,45,0.00,,,-99.99,2.800000,,2013-03-20 00:03:00,
2013-03-19 20:13:00,79.0,56.0,-100.00,NNE,22,4.0,-999.0,46,0.00,,,-99.99,0.200000,,2013-03-20 00:13:00,
2013-03-19 20:22:00,79.0,56.0,-100.00,NNE,22,4.0,-999.0,46,0.00,,,-99.99,0.200000,,2013-03-20 00:22:00,
2013-03-19 20:33:00,78.0,57.0,-100.00,North,3,4.0,-999.0,48,0.00,,,-99.99,0.000000,,2013-03-20 00:33:00,
2013-03-19 20:42:00,77.0,57.0,-100.00,NE,34,6.0,-999.0,50,0.00,,,-99.99,0.000000,,2013-03-20 00:42:00,
2013-03-19 20:52:00,77.0,57.0,-100.00,NE,34,6.0,-999.0,50,0.00,,,-99.99,0.000000,,2013-03-20 00:52:00,
2013-03-19 21:03:00,74.0,59.0,-100.00,ENE,76,8.0,-999.0,57,0.00,,,-99.99,0.000000,,2013-03-20 01:03:00,
2013-03-19 21:12:00,73.0,59.0,-100.00,ENE,73,7.0,-999.0,60,0.00,,,-99.99,0.000000,,2013-03-20 01:12:00,
2013-03-19 21:22:00,73.0,59.0,-100.00,ENE,73,7.0,-999.0,60,0.00,,,-99.99,0.000000,,2013-03-20 01:22:00,
2013-03-19 21:32:00,72.0,59.0,-100.00,ENE,78,7.0,-999.0,62,0.00,,,-99.99,0.000000,,2013-03-20 01:32:00,
2013-03-19 21:42:00,72.0,59.0,-100.00,East,88,6.0,-999.0,65,0.00,,,-99.99,0.000000,,2013-03-20 01:42:00,
2013-03-19 21:53:00,72.0,59.0,-100.00,East,88,6.0,-999.0,65,0.00,,,-99.99,0.000000,,2013-03-20 01:53:00,
2013-03-19 22:02:00,71.0,60.0,-100.00,East,80,6.0,-999.0,67,0.00,,,-99.99,0.000000,,2013-03-20 02:02:00,
2013-03-19 22:12:00,70.0,60.0,-100.00,ENE,77,4.0,-999.0,70,0.00,,,-99.99,0.000000,,2013-03-20 02:12:00,
2013-03-19 22:22:00,70.0,60.0,-100.00,ENE,77,4.0,-999.0,70,0.00,,,-99.99,0.000000,,2013-03-20 02:22:00,
2013-03-19 22:32:00,69.0,60.0,-100.00,ENE,72,5.0,-999.0,72,0.00,,,-99.99,0.000000,,2013-03-20 02:32:00,
2013-03-19 22:42:00,69.0,60.0,-100.00,ENE,68,3.0,-999.0,73,0.00,,,-99.99,0.000000,,2013-03-20 02:42:00,
2013-03-19 22:53:00,69.0,60.0,-100.00,ENE,68,3.0,-999.0,73,0.00,,,-99.99,0.000000,,2013-03-20 02:53:00,
2013-03-19 23:02:00,69.0,60.0,-100.00,NE,49,4.0,-999.0,74,0.00,,,-99.99,0.000000,,2013-03-20 03:02:00,
2013-03-19 23:12:00,68.0,60.0,-100.00,NNE,33,4.0,-999.0,75,0.00,,,-99.99,0.000000,,2013-03-20 03:12:00,
2013-03-19 23:22:00,68.0,60.0,-100.00,NNE,33,4.0,-999.0,75,0.00,,,-99.99,0.000000,,2013-03-20 03:22:00,
2013-03-19 23:34:00,68.0,60.0,-100.00,NNE,20,4.0,-999.0,76,0.00,,,-99.99,0.000000,,2013-03-20 03:34:00,
2013-03-19 23:42:00,68.0,61.0,-100.00,NE,37,5.0,-999.0,77,0.00,,,-99.99,0.000000,,2013-03-20 03:42:00,
2013-03-19 23:53:00,68.0,61.0,-100.00,NE,37,5.0,-999.0,77,0.00,,,-99.99,0.000000,,2013-03-20 03:53:00,